Time;durP1;ratioP1;P1;durP2;ratioP2;P2;SDS_P1;SDS_P2;PMS_P1;PMS_P2;Temp;Humidity;BMP_temperature;BMP_pressure;BME280_temperature;BME280_humidity;BME280_pressure;Samples;Min_cycle;Max_cycle;Signal;HPM_P1;HPM_P2
2023/09/04 00:01:26;;;;;;;14.82;2.90;;;26.50;99.90;;;;;;4992189;28;20014;-50
2023/09/04 00:03:51;;;;;;;5.55;2.85;;;26.50;99.90;;;;;;4992551;28;20018;-52
2023/09/04 00:06:17;;;;;;;5.82;2.95;;;26.50;99.90;;;;;;4992654;28;20031;-51
2023/09/04 00:08:43;;;;;;;6.93;3.28;;;26.40;99.90;;;;;;4992525;28;20379;-51
2023/09/04 00:11:09;;;;;;;7.43;3.17;;;26.40;99.90;;;;;;4992429;28;20026;-51
2023/09/04 00:13:36;;;;;;;6.80;3.65;;;26.30;99.90;;;;;;4994342;23;20047;-58
2023/09/04 00:16:02;;;;;;;11.83;3.80;;;26.30;99.90;;;;;;4953767;28;20085;-59
2023/09/04 00:18:30;;;;;;;6.45;3.40;;;26.20;99.90;;;;;;4953689;28;20301;-62
2023/09/04 00:20:56;;;;;;;8.38;3.38;;;26.20;99.90;;;;;;4953280;29;20078;-60
2023/09/04 00:23:21;;;;;;;14.65;4.13;;;26.10;99.90;;;;;;4968407;28;20118;-61
2023/09/04 00:25:47;;;;;;;5.13;2.88;;;26.10;99.90;;;;;;4968278;28;20023;-61
2023/09/04 00:28:13;;;;;;;4.82;2.38;;;26.00;99.90;;;;;;4953495;28;20023;-57
2023/09/04 00:30:39;;;;;;;5.43;2.28;;;25.90;99.90;;;;;;4953913;28;20147;-59
2023/09/04 00:33:05;;;;;;;7.35;2.65;;;25.90;99.90;;;;;;4952099;29;20033;-61
2023/09/04 00:35:30;;;;;;;3.33;1.65;;;25.80;99.90;;;;;;4954020;28;20027;-59
2023/09/04 00:37:56;;;;;;;2.85;2.25;;;25.80;99.90;;;;;;4956617;28;20046;-59
2023/09/04 00:40:22;;;;;;;3.25;1.92;;;25.70;99.90;;;;;;4956636;29;20381;-57
2023/09/04 00:42:48;;;;;;;6.00;2.20;;;25.60;99.90;;;;;;4956770;28;20054;-57
2023/09/04 00:45:13;;;;;;;5.95;2.50;;;25.60;99.90;;;;;;4956833;29;20023;-56
2023/09/04 00:47:42;;;;;;;2.42;1.67;;;25.50;99.90;;;;;;4957232;29;20361;-57
2023/09/04 00:50:11;;;;;;;5.03;1.60;;;25.50;99.90;;;;;;4950677;28;20071;-56
2023/09/04 00:52:37;;;;;;;5.90;1.60;;;25.40;99.90;;;;;;4961942;28;20383;-56
2023/09/04 00:55:05;;;;;;;3.55;2.00;;;25.40;99.90;;;;;;4956702;28;20035;-56
2023/09/04 00:57:32;;;;;;;4.57;1.70;;;25.40;99.90;;;;;;4942257;29;20047;-56
2023/09/04 01:00:02;;;;;;;4.47;1.90;;;25.30;99.90;;;;;;4937570;29;20036;-56
2023/09/04 01:02:28;;;;;;;3.15;1.67;;;25.30;99.90;;;;;;4964520;28;20027;-57
2023/09/04 01:04:54;;;;;;;3.22;1.48;;;25.20;99.90;;;;;;4956526;29;20034;-55
2023/09/04 01:07:20;;;;;;;5.93;1.70;;;25.20;99.90;;;;;;4956710;29;20471;-56
2023/09/04 01:09:45;;;;;;;4.35;1.60;;;25.20;99.90;;;;;;4956416;28;20150;-56
2023/09/04 01:12:19;;;;;;;3.28;1.60;;;25.10;99.90;;;;;;4956292;29;20445;-56
2023/09/04 01:14:47;;;;;;;4.75;2.28;;;25.10;99.90;;;;;;4956239;29;20043;-56
2023/09/04 01:17:13;;;;;;;2.33;1.60;;;25.00;99.90;;;;;;4956301;29;20388;-55
2023/09/04 01:19:40;;;;;;;3.42;1.90;;;25.00;99.90;;;;;;4956121;28;20082;-55
2023/09/04 01:22:07;;;;;;;2.25;1.58;;;25.00;99.90;;;;;;4956357;28;20095;-55
2023/09/04 01:24:33;;;;;;;4.13;2.05;;;25.00;99.90;;;;;;4955616;28;20446;-55
2023/09/04 01:27:10;;;;;;;5.28;1.67;;;25.00;99.90;;;;;;4955377;29;20028;-56
2023/09/04 01:29:50;;;;;;;4.60;1.10;;;25.00;99.90;;;;;;4956376;29;20110;-56
2023/09/04 01:32:48;;;;;;;3.13;1.20;;;24.90;99.90;;;;;;4956382;28;20027;-55
2023/09/04 01:35:17;;;;;;;2.33;1.20;;;24.90;99.90;;;;;;4950270;29;20406;-55
2023/09/04 01:37:42;;;;;;;3.42;1.50;;;24.90;99.90;;;;;;4956295;29;20027;-55
2023/09/04 01:40:09;;;;;;;1.73;1.10;;;24.90;99.90;;;;;;4956226;28;20028;-55
2023/09/04 01:42:38;;;;;;;2.10;1.38;;;24.90;99.90;;;;;;4956031;29;20027;-55
2023/09/04 01:45:05;;;;;;;2.03;1.50;;;24.90;99.90;;;;;;4956195;29;20028;-55
2023/09/04 01:47:30;;;;;;;3.05;1.40;;;24.90;99.90;;;;;;4955500;28;20024;-55
2023/09/04 01:49:57;;;;;;;3.25;1.20;;;24.80;99.90;;;;;;4954855;29;20545;-55
2023/09/04 01:52:23;;;;;;;1.95;1.33;;;24.80;99.90;;;;;;4970781;28;20386;-55
2023/09/04 01:54:49;;;;;;;2.42;1.50;;;24.80;99.90;;;;;;4956018;29;20019;-55
2023/09/04 01:57:16;;;;;;;3.08;1.30;;;24.80;99.90;;;;;;4955967;29;20027;-55
2023/09/04 01:59:42;;;;;;;4.18;1.50;;;24.80;99.90;;;;;;4955779;28;20080;-55
2023/09/04 02:02:08;;;;;;;2.75;1.38;;;24.80;99.90;;;;;;4955723;28;20031;-55
2023/09/04 02:04:34;;;;;;;2.03;1.30;;;24.80;99.90;;;;;;4955588;29;20073;-56
2023/09/04 02:07:00;;;;;;;3.40;1.63;;;24.80;99.90;;;;;;4955618;28;20136;-55
2023/09/04 02:09:26;;;;;;;2.00;1.30;;;24.80;99.90;;;;;;4955577;28;20050;-55
2023/09/04 02:11:52;;;;;;;2.78;1.38;;;24.80;99.90;;;;;;4955682;29;20483;-57
2023/09/04 02:14:18;;;;;;;3.78;2.03;;;24.80;99.90;;;;;;4955846;29;20395;-56
2023/09/04 02:16:43;;;;;;;2.00;1.40;;;24.80;99.90;;;;;;4955563;29;20043;-55
2023/09/04 02:19:09;;;;;;;2.05;1.33;;;24.80;99.90;;;;;;4970202;28;20440;-55
2023/09/04 02:21:35;;;;;;;4.18;1.55;;;24.80;99.90;;;;;;4955432;28;20023;-55
2023/09/04 02:24:01;;;;;;;2.67;1.00;;;24.80;99.90;;;;;;4955377;28;20031;-55
2023/09/04 02:26:27;;;;;;;1.88;1.05;;;24.80;99.90;;;;;;4955255;29;20516;-56
2023/09/04 02:28:53;;;;;;;3.45;0.90;;;24.70;99.90;;;;;;4955228;29;20062;-55
2023/09/04 02:31:19;;;;;;;2.22;1.15;;;24.70;99.90;;;;;;4969939;28;20125;-57
2023/09/04 02:33:44;;;;;;;1.85;1.20;;;24.70;99.90;;;;;;4955449;28;20090;-55
2023/09/04 02:36:10;;;;;;;1.85;1.17;;;24.70;99.90;;;;;;4955156;29;20031;-55
2023/09/04 02:38:36;;;;;;;3.15;1.20;;;24.70;99.90;;;;;;4954959;29;20114;-55
2023/09/04 02:41:02;;;;;;;2.75;1.00;;;24.70;99.90;;;;;;4954915;29;20034;-55
2023/09/04 02:43:27;;;;;;;2.08;1.40;;;24.70;99.90;;;;;;4954938;28;20046;-56
2023/09/04 02:45:53;;;;;;;2.70;1.23;;;24.70;99.90;;;;;;4954969;29;20371;-55
2023/09/04 02:48:19;;;;;;;1.60;1.23;;;24.60;99.90;;;;;;4969799;28;20046;-55
2023/09/04 02:50:45;;;;;;;4.00;1.65;;;24.60;99.90;;;;;;4955187;29;20063;-55
2023/09/04 02:53:10;;;;;;;2.70;1.10;;;24.60;99.90;;;;;;4954847;29;20082;-55
2023/09/04 02:55:36;;;;;;;3.22;1.20;;;24.60;99.90;;;;;;4954850;29;20023;-56
2023/09/04 02:58:02;;;;;;;2.15;1.10;;;24.60;99.90;;;;;;4954652;28;20035;-56
2023/09/04 03:00:28;;;;;;;2.83;1.13;;;24.60;99.90;;;;;;4953862;28;20028;-55
2023/09/04 03:02:55;;;;;;;1.65;1.23;;;24.60;99.90;;;;;;4954707;29;20037;-55
2023/09/04 03:05:21;;;;;;;3.58;1.17;;;24.50;99.90;;;;;;4954716;29;20434;-56
2023/09/04 03:07:47;;;;;;;2.22;1.25;;;24.50;99.90;;;;;;4969725;28;20046;-55
2023/09/04 03:10:12;;;;;;;1.65;1.00;;;24.50;99.90;;;;;;4954484;28;20055;-55
2023/09/04 03:12:38;;;;;;;1.90;1.00;;;24.50;99.90;;;;;;4954489;28;20035;-55
2023/09/04 03:15:06;;;;;;;4.13;1.27;;;24.50;99.90;;;;;;4954888;28;20055;-55
2023/09/04 03:17:33;;;;;;;1.77;0.77;;;24.50;99.90;;;;;;4954414;28;20031;-56
2023/09/04 03:20:00;;;;;;;2.83;1.75;;;24.50;99.90;;;;;;4954477;28;20024;-55
2023/09/04 03:22:27;;;;;;;2.85;1.33;;;24.50;99.90;;;;;;4954368;28;20098;-55
2023/09/04 03:24:53;;;;;;;7.80;1.58;;;24.50;99.90;;;;;;4954348;29;20015;-55
2023/09/04 03:27:19;;;;;;;3.92;1.42;;;24.50;99.90;;;;;;4954540;29;20113;-55
2023/09/04 03:29:45;;;;;;;5.18;1.20;;;24.50;99.90;;;;;;4969369;28;20078;-55
2023/09/04 03:32:11;;;;;;;4.72;1.08;;;24.50;99.90;;;;;;4954371;29;20035;-56
2023/09/04 03:34:38;;;;;;;4.55;1.40;;;24.50;99.90;;;;;;4954424;28;20019;-56
2023/09/04 03:37:04;;;;;;;3.90;1.50;;;24.50;99.90;;;;;;4954200;28;20537;-57
2023/09/04 03:39:35;;;;;;;1.52;0.90;;;24.50;99.90;;;;;;4954346;28;20475;-55
2023/09/04 03:42:01;;;;;;;2.90;1.30;;;24.50;99.90;;;;;;4953036;29;20356;-56
2023/09/04 03:44:27;;;;;;;5.43;1.40;;;24.40;99.90;;;;;;4954132;28;20155;-56
2023/09/04 03:46:53;;;;;;;9.70;2.35;;;24.50;99.90;;;;;;4954113;28;20391;-56
2023/09/04 03:49:19;;;;;;;14.57;2.10;;;24.50;99.90;;;;;;4954280;29;20506;-56
2023/09/04 03:51:44;;;;;;;7.95;1.95;;;24.40;99.90;;;;;;4951872;28;20383;-56
2023/09/04 03:54:10;;;;;;;5.38;1.52;;;24.50;99.90;;;;;;4954127;28;20129;-56
2023/09/04 03:56:36;;;;;;;5.68;1.35;;;24.40;99.90;;;;;;4954029;28;20031;-56
2023/09/04 03:59:02;;;;;;;8.50;2.25;;;24.50;99.90;;;;;;4954185;28;20032;-56
2023/09/04 04:01:31;;;;;;;5.30;1.77;;;24.40;99.90;;;;;;4953895;29;20038;-56
2023/09/04 04:03:58;;;;;;;6.72;1.77;;;24.50;99.90;;;;;;4954083;28;20030;-56
2023/09/04 04:06:25;;;;;;;3.13;1.52;;;24.50;99.90;;;;;;4954016;28;20103;-56
2023/09/04 04:08:51;;;;;;;2.80;1.30;;;24.50;99.90;;;;;;4954073;28;20143;-56
2023/09/04 04:11:19;;;;;;;5.82;1.30;;;24.40;99.90;;;;;;4955994;28;20035;-56
2023/09/04 04:13:46;;;;;;;4.60;1.70;;;24.40;99.90;;;;;;4955621;29;20107;-55
2023/09/04 04:16:12;;;;;;;3.88;1.40;;;24.50;99.90;;;;;;4957807;28;20030;-56
2023/09/04 04:18:38;;;;;;;5.32;1.75;;;24.40;99.90;;;;;;4957589;28;20039;-56
2023/09/04 04:21:04;;;;;;;2.95;1.60;;;24.50;99.90;;;;;;4972481;28;20027;-55
2023/09/04 04:23:30;;;;;;;4.43;1.83;;;24.50;99.90;;;;;;4957591;28;20034;-56
2023/09/04 04:25:56;;;;;;;6.97;2.42;;;24.50;99.90;;;;;;4957556;28;20034;-55
2023/09/04 04:28:23;;;;;;;7.55;2.10;;;24.40;99.90;;;;;;4956311;29;20031;-55
2023/09/04 04:30:49;;;;;;;8.65;1.70;;;24.50;99.90;;;;;;4957821;28;20027;-55
2023/09/04 04:33:15;;;;;;;7.78;2.10;;;24.50;99.90;;;;;;4957388;28;20023;-55
2023/09/04 04:35:41;;;;;;;4.13;1.48;;;24.50;99.90;;;;;;4957356;28;20353;-57
2023/09/04 04:38:07;;;;;;;2.20;1.30;;;24.40;99.90;;;;;;4957289;28;20460;-57
2023/09/04 04:40:36;;;;;;;3.35;2.08;;;24.40;99.90;;;;;;4957274;28;20024;-57
2023/09/04 04:43:03;;;;;;;4.40;1.23;;;24.40;99.90;;;;;;4957276;28;20032;-57
2023/09/04 04:45:29;;;;;;;3.72;1.50;;;24.40;99.90;;;;;;4956702;29;20039;-57
2023/09/04 04:47:55;;;;;;;4.70;1.60;;;24.40;99.90;;;;;;4957272;28;20031;-57
2023/09/04 04:50:21;;;;;;;3.05;1.42;;;24.50;99.90;;;;;;4957284;28;20035;-56
2023/09/04 04:52:47;;;;;;;1.75;1.20;;;24.40;99.90;;;;;;4957003;28;20028;-57
2023/09/04 04:55:13;;;;;;;2.65;1.40;;;24.40;99.90;;;;;;4956994;28;20020;-57
2023/09/04 04:57:39;;;;;;;2.78;1.80;;;24.40;99.90;;;;;;4956888;28;20042;-55
2023/09/04 05:00:06;;;;;;;2.28;1.20;;;24.40;99.90;;;;;;4956848;28;20041;-57
2023/09/04 05:02:33;;;;;;;2.15;1.00;;;24.40;99.90;;;;;;4955911;28;20031;-56
2023/09/04 05:04:59;;;;;;;1.73;1.30;;;24.40;99.90;;;;;;4956638;28;20027;-57
2023/09/04 05:07:25;;;;;;;3.38;1.40;;;24.40;99.90;;;;;;4956912;29;20029;-55
2023/09/04 05:09:54;;;;;;;4.05;1.50;;;24.40;99.90;;;;;;4956799;29;20111;-55
2023/09/04 05:12:21;;;;;;;4.22;1.77;;;24.40;99.90;;;;;;4956584;28;20522;-56
2023/09/04 05:14:47;;;;;;;5.38;1.92;;;24.40;99.90;;;;;;4955560;29;20131;-56
2023/09/04 05:17:13;;;;;;;3.63;1.70;;;24.40;99.90;;;;;;4956374;29;20125;-56
2023/09/04 05:19:38;;;;;;;3.90;1.40;;;24.40;99.90;;;;;;4956596;28;20028;-56
2023/09/04 05:22:04;;;;;;;3.28;1.40;;;24.40;99.90;;;;;;4955603;28;20026;-57
2023/09/04 05:24:30;;;;;;;2.65;1.48;;;24.40;99.90;;;;;;4955008;29;20074;-57
2023/09/04 05:26:56;;;;;;;6.45;1.50;;;24.40;99.90;;;;;;4956513;28;20024;-56
2023/09/04 05:29:22;;;;;;;8.02;1.75;;;24.40;99.90;;;;;;4956593;28;20055;-56
2023/09/04 05:31:52;;;;;;;7.00;1.20;;;24.40;99.90;;;;;;4956176;28;20071;-56
2023/09/04 05:34:18;;;;;;;3.28;1.35;;;24.40;99.90;;;;;;4956322;28;20106;-56
2023/09/04 05:36:44;;;;;;;6.53;1.80;;;24.40;99.90;;;;;;4956122;28;20035;-56
2023/09/04 05:39:10;;;;;;;3.13;1.65;;;24.40;99.90;;;;;;4956289;28;20031;-56
2023/09/04 05:41:39;;;;;;;4.55;1.42;;;24.40;99.90;;;;;;4956226;28;20388;-56
2023/09/04 05:44:05;;;;;;;4.25;1.45;;;24.40;99.90;;;;;;4956126;28;20392;-56
2023/09/04 05:46:32;;;;;;;5.95;1.83;;;24.40;99.90;;;;;;4970842;28;20106;-56
2023/09/04 05:48:58;;;;;;;2.88;2.03;;;24.40;99.90;;;;;;4955940;28;20027;-55
2023/09/04 05:51:24;;;;;;;10.13;2.00;;;24.40;99.90;;;;;;4955936;28;20050;-55
2023/09/04 05:53:50;;;;;;;2.03;1.38;;;24.40;99.90;;;;;;4955928;28;20026;-57
2023/09/04 05:56:17;;;;;;;2.92;1.27;;;24.40;99.90;;;;;;4955897;28;20024;-57
2023/09/04 05:58:50;;;;;;;8.20;3.55;;;24.40;99.90;;;;;;4955719;29;20440;-56
2023/09/04 06:01:18;;;;;;;5.43;3.15;;;24.30;99.90;;;;;;4955603;28;20106;-56
2023/09/04 06:03:45;;;;;;;5.50;1.50;;;24.40;99.90;;;;;;4955734;29;20035;-57
2023/09/04 06:06:12;;;;;;;5.90;1.67;;;24.30;99.90;;;;;;4955696;29;20023;-55
2023/09/04 06:08:38;;;;;;;3.88;1.67;;;24.30;99.90;;;;;;4955699;28;20023;-56
2023/09/04 06:11:04;;;;;;;6.00;1.95;;;24.40;99.90;;;;;;4955381;29;20031;-55
2023/09/04 06:13:31;;;;;;;5.70;2.15;;;24.40;99.90;;;;;;4955322;28;20400;-55
2023/09/04 06:15:58;;;;;;;7.80;1.87;;;24.30;99.90;;;;;;4955784;28;20099;-56
2023/09/04 06:18:24;;;;;;;3.55;1.60;;;24.40;99.90;;;;;;4955579;28;20649;-56
2023/09/04 06:20:51;;;;;;;5.18;1.65;;;24.40;99.90;;;;;;4955325;29;20102;-56
2023/09/04 06:23:17;;;;;;;5.20;1.40;;;24.30;99.90;;;;;;4955272;29;20023;-56
2023/09/04 06:25:43;;;;;;;4.65;1.73;;;24.30;99.90;;;;;;4955334;28;20030;-56
2023/09/04 06:28:10;;;;;;;5.10;1.70;;;24.30;99.90;;;;;;4955397;28;20154;-56
2023/09/04 06:30:37;;;;;;;4.70;1.85;;;24.30;99.90;;;;;;4953900;29;20027;-55
2023/09/04 06:33:03;;;;;;;4.53;2.47;;;24.40;99.90;;;;;;4955040;28;20026;-54
2023/09/04 06:35:29;;;;;;;2.40;1.60;;;24.30;99.90;;;;;;4955349;29;20103;-54
2023/09/04 06:37:55;;;;;;;5.28;1.90;;;24.30;99.90;;;;;;4955150;28;20046;-54
2023/09/04 06:40:22;;;;;;;5.60;1.70;;;24.30;99.90;;;;;;4955121;28;20127;-57
2023/09/04 06:42:47;;;;;;;3.42;1.80;;;24.40;99.90;;;;;;4954893;29;20082;-56
2023/09/04 06:45:13;;;;;;;3.30;1.90;;;24.40;99.90;;;;;;4954716;29;20103;-56
2023/09/04 06:47:40;;;;;;;7.63;2.72;;;24.40;99.90;;;;;;4954806;29;20451;-55
2023/09/04 06:50:07;;;;;;;4.90;2.40;;;24.40;99.90;;;;;;4954681;28;20030;-55
2023/09/04 06:52:33;;;;;;;2.70;1.67;;;24.40;99.90;;;;;;4953558;28;20114;-55
2023/09/04 06:54:59;;;;;;;3.60;1.70;;;24.40;99.90;;;;;;4954814;29;20106;-55
2023/09/04 06:57:25;;;;;;;6.47;1.50;;;24.40;99.90;;;;;;4954505;28;20031;-55
2023/09/04 06:59:52;;;;;;;2.65;1.65;;;24.40;99.90;;;;;;4953320;29;20082;-55
2023/09/04 07:02:19;;;;;;;7.10;1.92;;;24.40;99.90;;;;;;4954526;29;20011;-55
2023/09/04 07:04:45;;;;;;;3.95;1.40;;;24.40;99.90;;;;;;4954453;29;20027;-55
2023/09/04 07:07:11;;;;;;;6.85;1.60;;;24.40;99.90;;;;;;4954525;28;20027;-55
2023/09/04 07:09:37;;;;;;;5.60;1.58;;;24.40;99.90;;;;;;4954541;28;20487;-55
2023/09/04 07:12:03;;;;;;;7.60;1.88;;;24.40;99.90;;;;;;4954417;29;20106;-55
2023/09/04 07:14:29;;;;;;;4.85;1.70;;;24.40;99.90;;;;;;4969416;28;20053;-56
2023/09/04 07:16:55;;;;;;;4.78;1.75;;;24.50;99.90;;;;;;4954539;28;20035;-55
2023/09/04 07:19:21;;;;;;;5.15;1.77;;;24.50;99.90;;;;;;4954439;29;20110;-55
2023/09/04 07:21:46;;;;;;;5.82;1.73;;;24.50;99.90;;;;;;4954509;29;20091;-56
2023/09/04 07:24:12;;;;;;;4.80;2.10;;;24.50;99.90;;;;;;4954439;29;20034;-56
2023/09/04 07:26:38;;;;;;;3.05;1.63;;;24.50;99.90;;;;;;4954404;29;20206;-56
2023/09/04 07:29:04;;;;;;;7.20;2.30;;;24.60;99.90;;;;;;4954296;29;20066;-56
2023/09/04 07:31:30;;;;;;;3.67;2.17;;;24.60;99.90;;;;;;4954750;28;20475;-56
2023/09/04 07:33:55;;;;;;;8.43;2.08;;;24.60;99.90;;;;;;4954361;29;20031;-55
2023/09/04 07:36:21;;;;;;;8.18;2.85;;;24.60;99.90;;;;;;4954209;28;20062;-55
2023/09/04 07:38:47;;;;;;;5.28;1.80;;;24.70;99.90;;;;;;4954159;28;20118;-55
2023/09/04 07:41:13;;;;;;;3.35;1.60;;;24.70;99.90;;;;;;4954061;28;20027;-54
2023/09/04 07:43:39;;;;;;;6.03;1.63;;;24.70;99.90;;;;;;4954273;29;20034;-55
2023/09/04 07:46:05;;;;;;;7.80;1.80;;;24.70;99.90;;;;;;4958152;28;20427;-55
2023/09/04 07:48:31;;;;;;;3.75;1.67;;;24.70;99.90;;;;;;4960208;28;20407;-55
2023/09/04 07:50:57;;;;;;;6.75;2.35;;;24.80;99.90;;;;;;4960328;28;20345;-56
2023/09/04 07:53:23;;;;;;;6.22;2.00;;;24.80;99.90;;;;;;4959776;28;20025;-56
2023/09/04 07:55:51;;;;;;;3.88;1.70;;;24.90;99.90;;;;;;4958705;28;20022;-57
2023/09/04 07:58:17;;;;;;;;;;;24.90;99.90;;;;;;4960176;28;20444;-56
2023/09/04 08:00:48;;;;;;;7.53;1.70;;;24.90;99.90;;;;;;4959278;28;19945;-55
2023/09/04 08:03:14;;;;;;;5.85;1.65;;;25.00;99.90;;;;;;4960454;28;20065;-56
2023/09/04 08:05:40;;;;;;;7.03;1.80;;;25.00;99.90;;;;;;4960468;28;20547;-55
2023/09/04 08:08:10;;;;;;;2.60;1.40;;;25.00;99.90;;;;;;4959489;28;20400;-56
2023/09/04 08:10:39;;;;;;;5.18;1.30;;;25.00;99.90;;;;;;4959968;29;20131;-55
2023/09/04 08:13:07;;;;;;;11.80;2.40;;;25.10;99.90;;;;;;4959780;28;20088;-55
2023/09/04 08:15:33;;;;;;;5.03;1.23;;;25.10;99.90;;;;;;4960595;28;20034;-57
2023/09/04 08:17:59;;;;;;;4.38;1.88;;;25.10;99.90;;;;;;4959710;28;20035;-56
2023/09/04 08:20:24;;;;;;;2.30;1.20;;;25.20;99.90;;;;;;4958913;29;20538;-55
2023/09/04 08:22:50;;;;;;;4.20;1.55;;;25.20;99.90;;;;;;4959009;28;20073;-56
2023/09/04 08:25:16;;;;;;;3.05;1.60;;;25.30;99.90;;;;;;4973852;28;20023;-56
2023/09/04 08:27:42;;;;;;;5.93;1.50;;;25.30;99.90;;;;;;4959423;28;20384;-56
2023/09/04 08:30:08;;;;;;;7.03;1.50;;;25.30;99.90;;;;;;4975027;28;20464;-56
2023/09/04 08:32:34;;;;;;;5.85;1.40;;;25.40;99.90;;;;;;4959156;28;20035;-57
2023/09/04 08:34:59;;;;;;;3.70;1.40;;;25.40;99.90;;;;;;4959257;28;20027;-56
2023/09/04 08:37:25;;;;;;;2.25;1.35;;;25.40;99.90;;;;;;4959477;28;20113;-57
2023/09/04 08:39:51;;;;;;;3.22;1.08;;;25.40;99.90;;;;;;4957949;28;20042;-57
2023/09/04 08:42:17;;;;;;;7.65;2.30;;;25.40;99.90;;;;;;4959353;28;20371;-57
2023/09/04 08:44:45;;;;;;;7.57;1.45;;;25.40;99.90;;;;;;4958778;28;20117;-56
2023/09/04 08:47:15;;;;;;;4.82;1.98;;;25.40;99.90;;;;;;4956828;29;20491;-56
2023/09/04 08:49:41;;;;;;;3.45;1.30;;;25.40;99.90;;;;;;4959071;28;20472;-56
2023/09/04 08:52:08;;;;;;;7.70;1.88;;;25.50;99.90;;;;;;4959398;28;20027;-55
2023/09/04 08:54:34;;;;;;;7.35;1.40;;;25.50;99.90;;;;;;4959808;28;20379;-56
2023/09/04 08:57:00;;;;;;;3.78;1.15;;;25.50;99.90;;;;;;4958459;28;20023;-58
2023/09/04 08:59:26;;;;;;;3.38;1.80;;;25.50;99.90;;;;;;4956023;28;20062;-57
2023/09/04 09:01:55;;;;;;;4.45;1.35;;;25.60;99.90;;;;;;4955100;28;20058;-58
2023/09/04 09:04:24;;;;;;;2.08;1.27;;;25.60;99.90;;;;;;4956359;28;20031;-57
2023/09/04 09:06:51;;;;;;;6.57;1.30;;;25.60;99.90;;;;;;4956284;28;20530;-56
2023/09/04 09:09:22;;;;;;;2.83;1.40;;;25.60;99.90;;;;;;4956817;28;20062;-58
2023/09/04 09:11:53;;;;;;;4.85;1.70;;;25.60;99.90;;;;;;4956643;28;20085;-58
2023/09/04 09:14:20;;;;;;;4.15;1.77;;;25.70;99.90;;;;;;4956422;29;20496;-57
2023/09/04 09:16:46;;;;;;;3.07;1.40;;;25.70;99.90;;;;;;4956524;28;20028;-57
2023/09/04 09:19:13;;;;;;;6.55;1.38;;;25.70;99.90;;;;;;4956449;28;20277;-57
2023/09/04 09:21:40;;;;;;;4.43;1.38;;;25.70;99.90;;;;;;4956373;28;20483;-57
2023/09/04 09:24:06;;;;;;;3.42;1.38;;;25.80;99.90;;;;;;4956367;29;20059;-57
2023/09/04 09:26:32;;;;;;;7.35;1.52;;;25.80;99.90;;;;;;4955121;29;20035;-57
2023/09/04 09:28:58;;;;;;;4.72;1.70;;;25.80;99.90;;;;;;4956243;28;20391;-58
2023/09/04 09:31:24;;;;;;;6.35;1.85;;;25.90;99.90;;;;;;4956243;28;20097;-57
2023/09/04 09:33:50;;;;;;;4.15;1.27;;;25.90;99.90;;;;;;4956269;28;20026;-59
2023/09/04 09:36:15;;;;;;;4.65;1.63;;;26.00;99.90;;;;;;4956156;28;20396;-62
2023/09/04 09:38:45;;;;;;;7.47;1.40;;;26.00;99.90;;;;;;4956043;29;20109;-60
2023/09/04 09:41:12;;;;;;;4.25;1.48;;;26.00;99.90;;;;;;4956027;28;20077;-61
2023/09/04 09:43:39;;;;;;;4.93;1.80;;;26.00;99.90;;;;;;4954953;29;20031;-60
2023/09/04 09:46:08;;;;;;;6.00;1.60;;;26.00;99.90;;;;;;4956101;28;20106;-57
2023/09/04 09:48:36;;;;;;;3.50;1.67;;;26.00;99.90;;;;;;4954745;29;20027;-57
2023/09/04 09:51:02;;;;;;;;;;;26.00;99.90;;;;;;4956541;28;20023;-58
2023/09/04 09:53:43;;;;;;;11.32;3.15;;;26.00;99.90;;;;;;4956052;28;20351;-57
2023/09/04 09:56:12;;;;;;;6.40;2.42;;;26.00;99.90;;;;;;4956155;28;20019;-57
2023/09/04 09:58:40;;;;;;;9.85;4.32;;;26.00;99.90;;;;;;4955825;28;20031;-56
2023/09/04 10:01:08;;;;;;;5.70;3.13;;;26.10;99.90;;;;;;4955778;28;20029;-56
2023/09/04 10:03:38;;;;;;;9.20;8.00;;;26.10;99.90;;;;;;4955824;28;20034;-57
2023/09/04 10:06:05;;;;;;;7.50;4.75;;;26.10;99.90;;;;;;4955562;28;20026;-58
2023/09/04 10:08:40;;;;;;;8.40;3.15;;;26.20;99.90;;;;;;4953743;28;21217;-56
2023/09/04 10:11:18;;;;;;;3.10;1.90;;;26.30;99.90;;;;;;4955423;28;20043;-59
2023/09/04 10:14:28;;;;;;;4.32;2.47;;;26.30;99.90;;;;;;4955212;28;20051;-59
2023/09/04 10:16:58;;;;;;;4.45;2.40;;;26.30;99.90;;;;;;4954607;28;20031;-57
2023/09/04 10:19:30;;;;;;;10.95;3.22;;;26.40;99.90;;;;;;4955236;28;20357;-58
2023/09/04 10:22:07;;;;;;;6.30;1.80;;;26.50;99.90;;;;;;4953868;28;20023;-56
2023/09/04 10:24:44;;;;;;;11.82;2.30;;;26.50;99.90;;;;;;4955052;28;20031;-57
2023/09/04 10:27:11;;;;;;;4.68;2.13;;;26.50;99.90;;;;;;4955348;29;20023;-57
2023/09/04 10:30:04;;;;;;;6.75;3.30;;;26.60;99.90;;;;;;4955417;28;20030;-57
2023/09/04 10:32:30;;;;;;;10.27;5.28;;;26.70;99.90;;;;;;4955174;28;20035;-57
2023/09/04 10:34:56;;;;;;;5.85;3.25;;;26.70;99.90;;;;;;4954982;29;20329;-57
2023/09/04 10:37:26;;;;;;;4.97;2.60;;;26.80;99.90;;;;;;4954996;28;20031;-57
2023/09/04 10:39:53;;;;;;;5.97;2.42;;;26.80;99.90;;;;;;4954848;28;20035;-57
2023/09/04 10:42:20;;;;;;;6.72;3.53;;;26.80;99.90;;;;;;4954801;28;20078;-58
2023/09/04 10:44:53;;;;;;;5.85;3.20;;;26.90;99.90;;;;;;4954719;29;20057;-56
2023/09/04 10:47:21;;;;;;;11.60;3.88;;;26.90;99.90;;;;;;4953583;29;20031;-56
2023/09/04 10:49:47;;;;;;;10.18;5.00;;;26.90;99.90;;;;;;4954777;28;20038;-57
2023/09/04 10:52:14;;;;;;;7.80;3.88;;;26.90;99.90;;;;;;4955096;29;20027;-56
2023/09/04 10:54:41;;;;;;;5.53;2.85;;;26.90;99.90;;;;;;4955037;29;20078;-56
2023/09/04 10:57:12;;;;;;;5.90;2.50;;;26.90;99.90;;;;;;4954514;28;20443;-56
2023/09/04 10:59:53;;;;;;;4.88;2.28;;;27.00;99.90;;;;;;4954735;29;20023;-57
2023/09/04 11:02:29;;;;;;;8.27;2.35;;;27.00;99.90;;;;;;4953397;29;20086;-57
2023/09/04 11:04:55;;;;;;;8.95;2.85;;;27.00;99.90;;;;;;4954581;28;20380;-58
2023/09/04 11:07:21;;;;;;;4.60;2.45;;;27.00;99.90;;;;;;4954370;28;20034;-57
2023/09/04 11:10:07;;;;;;;6.18;3.38;;;27.00;99.90;;;;;;4953691;28;20054;-57
2023/09/04 11:12:37;;;;;;;6.63;5.10;;;27.00;99.90;;;;;;4948155;28;20038;-57
2023/09/04 11:15:10;;;;;;;7.95;2.60;;;27.00;99.90;;;;;;4953564;28;20098;-57
2023/09/04 11:17:40;;;;;;;7.13;2.85;;;27.00;99.90;;;;;;4953239;28;20031;-60
2023/09/04 11:20:06;;;;;;;5.38;2.55;;;27.10;99.90;;;;;;4951088;28;20038;-57
2023/09/04 11:22:33;;;;;;;6.40;2.53;;;27.00;99.90;;;;;;4953647;28;20042;-59
2023/09/04 11:24:59;;;;;;;5.90;2.97;;;27.10;99.90;;;;;;4954067;28;20484;-60
2023/09/04 11:27:26;;;;;;;5.15;3.05;;;27.10;99.90;;;;;;4953801;28;20159;-63
2023/09/04 11:29:52;;;;;;;8.63;2.60;;;27.10;99.90;;;;;;4952195;29;20027;-65
2023/09/04 11:32:19;;;;;;;7.40;5.50;;;27.10;99.90;;;;;;4953488;28;20031;-63
2023/09/04 11:34:46;;;;;;;8.43;5.82;;;27.20;99.90;;;;;;4952745;29;20019;-61
2023/09/04 11:37:12;;;;;;;11.82;6.85;;;27.20;99.90;;;;;;4953513;28;20051;-62
2023/09/04 11:40:11;;;;;;;7.65;4.78;;;27.20;99.90;;;;;;4953616;29;20037;-61
2023/09/04 11:42:37;;;;;;;7.65;3.30;;;27.20;99.90;;;;;;4939862;29;20440;-62
2023/09/04 11:45:03;;;;;;;7.50;3.40;;;27.20;99.90;;;;;;4953161;28;20024;-63
2023/09/04 11:47:29;;;;;;;8.60;3.30;;;27.20;99.90;;;;;;4950882;29;20023;-63
2023/09/04 11:49:55;;;;;;;5.15;3.58;;;27.30;99.90;;;;;;4953590;28;20019;-63
2023/09/04 11:52:28;;;;;;;5.97;3.55;;;27.30;99.90;;;;;;4953392;28;20585;-63
2023/09/04 11:54:54;;;;;;;11.13;5.15;;;27.30;99.90;;;;;;4952474;28;20027;-62
2023/09/04 11:57:21;;;;;;;9.85;4.90;;;27.30;99.90;;;;;;4953570;28;20027;-63
2023/09/04 11:59:47;;;;;;;12.20;7.43;;;27.30;99.90;;;;;;4952438;28;20086;-63
2023/09/04 12:02:12;;;;;;;11.93;8.10;;;27.30;99.90;;;;;;4953573;28;20020;-63
2023/09/04 12:04:38;;;;;;;9.45;5.70;;;27.30;99.90;;;;;;4953093;28;20035;-63
2023/09/04 12:07:06;;;;;;;11.45;4.68;;;27.30;99.90;;;;;;4953461;28;20403;-63
2023/09/04 12:09:35;;;;;;;8.85;4.72;;;27.40;99.90;;;;;;4953063;28;20027;-64
2023/09/04 12:12:01;;;;;;;6.70;3.78;;;27.40;99.90;;;;;;4953240;28;20019;-63
2023/09/04 12:14:28;;;;;;;11.15;5.43;;;27.40;99.90;;;;;;4953059;28;20082;-63
2023/09/04 12:16:54;;;;;;;5.90;4.00;;;27.40;99.90;;;;;;4950595;29;20515;-63
2023/09/04 12:19:24;;;;;;;11.50;5.18;;;27.50;99.90;;;;;;4953463;29;20035;-61
2023/09/04 12:21:51;;;;;;;9.02;4.30;;;27.50;99.90;;;;;;4953157;28;20015;-63
2023/09/04 12:24:18;;;;;;;5.73;3.63;;;27.50;99.90;;;;;;4951967;28;20027;-64
2023/09/04 12:26:47;;;;;;;12.63;4.95;;;27.60;99.90;;;;;;4952991;29;20114;-63
2023/09/04 12:29:13;;;;;;;5.32;3.20;;;27.60;99.90;;;;;;4953120;28;20023;-61
2023/09/04 12:31:41;;;;;;;12.27;7.30;;;27.60;99.90;;;;;;4953664;28;20020;-61
2023/09/04 12:34:07;;;;;;;11.43;7.20;;;27.70;99.90;;;;;;4948425;28;20042;-62
2023/09/04 12:36:34;;;;;;;9.95;5.90;;;27.70;99.90;;;;;;4950741;28;20027;-63
2023/09/04 12:39:00;;;;;;;18.67;12.80;;;27.70;99.90;;;;;;4952738;28;20122;-63
2023/09/04 12:41:27;;;;;;;12.23;7.00;;;27.70;99.90;;;;;;4953896;28;20031;-64
2023/09/04 12:43:52;;;;;;;12.70;6.23;;;27.70;99.90;;;;;;4953132;28;20031;-61
2023/09/04 12:46:18;;;;;;;10.55;5.03;;;27.80;99.90;;;;;;4953334;28;20269;-63